CheckWX is a tool to help pilots better visualize weather data.  It is not intended as a substitute for an official pre-flight weather briefing.

23:50:16 UTC

KPOC METAR
Brackett Field Airport
La Verne, California, USA
Current

3 mins ago

KPOC 162347Z 24007KT 10SM CLR 27/05 A2995
Observed
Nov-16 @ 23:47 UTC
Wind
  • 240° at 7 KTS
Visibility
10 SM
Flight Rules
VFR
Cloud Levels
  • Clear skies
Temperature
27°C / 81°F
Dewpoint
C / 41°F
Humidity
24%
Altimeter
29.95" Hg
Pressure
1014.22 hPa
Previous

1 hour ago

KPOC 162247Z 26008KT 10SM CLR 28/03 A2994
Observed
Nov-16 @ 22:47 UTC
Wind
  • 260° at 8 KTS
Visibility
10 SM
Flight Rules
VFR
Cloud Levels
  • Clear skies
Temperature
28°C / 82°F
Dewpoint
C / 37°F
Humidity
20%
Altimeter
29.94" Hg
Pressure
1013.92 hPa
Previous

2 hours ago

KPOC 162147Z 27008KT 10SM CLR 28/02 A2994
Observed
Nov-16 @ 21:47 UTC
Wind
  • 270° at 8 KTS
Visibility
10 SM
Flight Rules
VFR
Cloud Levels
  • Clear skies
Temperature
28°C / 82°F
Dewpoint
C / 36°F
Humidity
19%
Altimeter
29.94" Hg
Pressure
1013.92 hPa